sensor_id;sensor_type;location;lat;lon;timestamp;P1;durP1;ratioP1;P2;durP2;ratioP2
11935;SDS011;6027;48.576;9.180;2022-10-16T00:00:29;4.25;;;2.80;;
11935;SDS011;6027;48.576;9.180;2022-10-16T00:02:55;4.55;;;2.85;;
11935;SDS011;6027;48.576;9.180;2022-10-16T00:05:21;7.10;;;2.90;;
11935;SDS011;6027;48.576;9.180;2022-10-16T00:07:46;3.20;;;2.50;;
11935;SDS011;6027;48.576;9.180;2022-10-16T00:10:12;4.72;;;2.55;;
11935;SDS011;6027;48.576;9.180;2022-10-16T00:12:37;3.88;;;2.42;;
11935;SDS011;6027;48.576;9.180;2022-10-16T00:15:03;6.32;;;2.30;;
11935;SDS011;6027;48.576;9.180;2022-10-16T00:17:29;4.13;;;2.10;;
11935;SDS011;6027;48.576;9.180;2022-10-16T00:19:55;2.40;;;2.08;;
11935;SDS011;6027;48.576;9.180;2022-10-16T00:22:20;2.95;;;1.80;;
11935;SDS011;6027;48.576;9.180;2022-10-16T00:24:45;2.10;;;1.88;;
11935;SDS011;6027;48.576;9.180;2022-10-16T00:27:11;3.00;;;1.77;;
11935;SDS011;6027;48.576;9.180;2022-10-16T00:29:36;2.88;;;1.95;;
11935;SDS011;6027;48.576;9.180;2022-10-16T00:32:02;3.08;;;1.70;;
11935;SDS011;6027;48.576;9.180;2022-10-16T00:34:28;3.25;;;1.88;;
11935;SDS011;6027;48.576;9.180;2022-10-16T00:36:53;3.53;;;1.80;;
11935;SDS011;6027;48.576;9.180;2022-10-16T00:39:19;4.72;;;1.67;;
11935;SDS011;6027;48.576;9.180;2022-10-16T00:41:44;3.85;;;1.73;;
11935;SDS011;6027;48.576;9.180;2022-10-16T00:47:21;2.25;;;1.88;;
11935;SDS011;6027;48.576;9.180;2022-10-16T00:49:52;2.63;;;2.00;;
11935;SDS011;6027;48.576;9.180;2022-10-16T00:52:21;1.80;;;1.70;;
11935;SDS011;6027;48.576;9.180;2022-10-16T00:54:47;1.88;;;1.60;;
11935;SDS011;6027;48.576;9.180;2022-10-16T00:57:15;4.25;;;1.90;;
11935;SDS011;6027;48.576;9.180;2022-10-16T00:59:41;3.03;;;1.70;;
11935;SDS011;6027;48.576;9.180;2022-10-16T01:02:09;3.15;;;1.63;;
11935;SDS011;6027;48.576;9.180;2022-10-16T01:04:38;2.10;;;1.70;;
11935;SDS011;6027;48.576;9.180;2022-10-16T01:07:12;4.10;;;1.65;;
11935;SDS011;6027;48.576;9.180;2022-10-16T01:14:56;1.88;;;1.60;;
11935;SDS011;6027;48.576;9.180;2022-10-16T01:28:16;2.53;;;1.85;;
11935;SDS011;6027;48.576;9.180;2022-10-16T01:30:44;2.88;;;2.30;;
11935;SDS011;6027;48.576;9.180;2022-10-16T01:33:30;2.60;;;1.90;;
11935;SDS011;6027;48.576;9.180;2022-10-16T01:36:03;1.95;;;1.40;;
11935;SDS011;6027;48.576;9.180;2022-10-16T01:38:36;1.58;;;1.48;;
11935;SDS011;6027;48.576;9.180;2022-10-16T01:41:11;1.70;;;1.35;;
11935;SDS011;6027;48.576;9.180;2022-10-16T01:43:43;4.03;;;1.30;;
11935;SDS011;6027;48.576;9.180;2022-10-16T01:46:14;5.88;;;1.50;;
11935;SDS011;6027;48.576;9.180;2022-10-16T01:48:43;1.63;;;1.52;;
11935;SDS011;6027;48.576;9.180;2022-10-16T01:51:10;2.33;;;1.20;;
11935;SDS011;6027;48.576;9.180;2022-10-16T01:53:41;1.77;;;1.35;;
11935;SDS011;6027;48.576;9.180;2022-10-16T01:56:11;2.28;;;1.45;;
11935;SDS011;6027;48.576;9.180;2022-10-16T01:58:41;2.15;;;1.40;;
11935;SDS011;6027;48.576;9.180;2022-10-16T02:01:12;1.90;;;1.40;;
11935;SDS011;6027;48.576;9.180;2022-10-16T02:03:42;3.33;;;1.40;;
11935;SDS011;6027;48.576;9.180;2022-10-16T02:06:09;1.48;;;1.38;;
11935;SDS011;6027;48.576;9.180;2022-10-16T02:08:35;2.70;;;1.30;;
11935;SDS011;6027;48.576;9.180;2022-10-16T02:11:01;2.92;;;1.15;;
11935;SDS011;6027;48.576;9.180;2022-10-16T02:13:32;6.00;;;1.48;;
11935;SDS011;6027;48.576;9.180;2022-10-16T02:16:02;2.10;;;1.10;;
11935;SDS011;6027;48.576;9.180;2022-10-16T02:18:28;3.83;;;1.25;;
11935;SDS011;6027;48.576;9.180;2022-10-16T02:21:00;1.98;;;1.27;;
11935;SDS011;6027;48.576;9.180;2022-10-16T02:26:28;3.90;;;1.48;;
11935;SDS011;6027;48.576;9.180;2022-10-16T02:29:02;1.80;;;1.35;;
11935;SDS011;6027;48.576;9.180;2022-10-16T02:31:36;4.20;;;1.40;;
11935;SDS011;6027;48.576;9.180;2022-10-16T02:34:06;1.80;;;1.10;;
11935;SDS011;6027;48.576;9.180;2022-10-16T02:36:33;2.38;;;1.30;;
11935;SDS011;6027;48.576;9.180;2022-10-16T02:39:01;1.85;;;1.17;;
11935;SDS011;6027;48.576;9.180;2022-10-16T02:41:28;11.50;;;5.03;;
11935;SDS011;6027;48.576;9.180;2022-10-16T02:43:54;4.15;;;1.90;;
11935;SDS011;6027;48.576;9.180;2022-10-16T02:46:20;6.18;;;1.80;;
11935;SDS011;6027;48.576;9.180;2022-10-16T02:48:45;2.70;;;1.77;;
11935;SDS011;6027;48.576;9.180;2022-10-16T02:51:11;3.58;;;1.50;;
11935;SDS011;6027;48.576;9.180;2022-10-16T02:53:36;2.67;;;1.60;;
11935;SDS011;6027;48.576;9.180;2022-10-16T02:56:02;1.67;;;1.30;;
11935;SDS011;6027;48.576;9.180;2022-10-16T02:58:27;1.30;;;1.20;;
11935;SDS011;6027;48.576;9.180;2022-10-16T03:00:53;3.03;;;1.45;;
11935;SDS011;6027;48.576;9.180;2022-10-16T03:03:20;4.00;;;1.40;;
11935;SDS011;6027;48.576;9.180;2022-10-16T03:06:05;3.85;;;2.05;;
11935;SDS011;6027;48.576;9.180;2022-10-16T03:08:31;3.35;;;2.00;;
11935;SDS011;6027;48.576;9.180;2022-10-16T03:10:56;2.47;;;1.77;;
11935;SDS011;6027;48.576;9.180;2022-10-16T03:13:22;2.03;;;1.50;;
11935;SDS011;6027;48.576;9.180;2022-10-16T03:15:47;2.00;;;1.45;;
11935;SDS011;6027;48.576;9.180;2022-10-16T03:18:12;2.70;;;1.52;;
11935;SDS011;6027;48.576;9.180;2022-10-16T03:20:38;1.95;;;1.60;;
11935;SDS011;6027;48.576;9.180;2022-10-16T03:23:04;4.90;;;1.60;;
11935;SDS011;6027;48.576;9.180;2022-10-16T03:25:29;1.45;;;1.33;;
11935;SDS011;6027;48.576;9.180;2022-10-16T03:27:54;2.80;;;1.33;;
11935;SDS011;6027;48.576;9.180;2022-10-16T03:30:20;2.35;;;1.60;;
11935;SDS011;6027;48.576;9.180;2022-10-16T03:32:46;1.52;;;1.42;;
11935;SDS011;6027;48.576;9.180;2022-10-16T03:35:11;1.75;;;1.40;;
11935;SDS011;6027;48.576;9.180;2022-10-16T03:37:37;2.85;;;1.60;;
11935;SDS011;6027;48.576;9.180;2022-10-16T03:40:03;1.70;;;1.60;;
11935;SDS011;6027;48.576;9.180;2022-10-16T03:42:29;3.92;;;1.55;;
11935;SDS011;6027;48.576;9.180;2022-10-16T03:44:54;2.50;;;1.55;;
11935;SDS011;6027;48.576;9.180;2022-10-16T03:47:20;2.50;;;0.93;;
11935;SDS011;6027;48.576;9.180;2022-10-16T03:49:48;2.45;;;1.40;;
11935;SDS011;6027;48.576;9.180;2022-10-16T03:52:13;2.67;;;1.40;;
11935;SDS011;6027;48.576;9.180;2022-10-16T03:54:39;4.38;;;1.33;;
11935;SDS011;6027;48.576;9.180;2022-10-16T03:57:04;2.63;;;1.70;;
11935;SDS011;6027;48.576;9.180;2022-10-16T03:59:30;1.60;;;1.50;;
11935;SDS011;6027;48.576;9.180;2022-10-16T04:01:55;5.60;;;1.33;;
11935;SDS011;6027;48.576;9.180;2022-10-16T04:04:21;4.70;;;1.48;;
11935;SDS011;6027;48.576;9.180;2022-10-16T04:06:46;1.75;;;1.42;;
11935;SDS011;6027;48.576;9.180;2022-10-16T04:09:12;3.47;;;1.30;;
11935;SDS011;6027;48.576;9.180;2022-10-16T04:11:37;2.42;;;1.40;;
11935;SDS011;6027;48.576;9.180;2022-10-16T04:14:03;1.02;;;1.02;;
11935;SDS011;6027;48.576;9.180;2022-10-16T04:16:29;1.92;;;1.38;;
11935;SDS011;6027;48.576;9.180;2022-10-16T04:18:54;1.88;;;1.15;;
11935;SDS011;6027;48.576;9.180;2022-10-16T04:21:20;3.28;;;1.40;;
11935;SDS011;6027;48.576;9.180;2022-10-16T04:23:45;2.13;;;1.40;;
11935;SDS011;6027;48.576;9.180;2022-10-16T04:26:11;2.00;;;1.13;;
11935;SDS011;6027;48.576;9.180;2022-10-16T04:28:36;1.40;;;1.30;;
11935;SDS011;6027;48.576;9.180;2022-10-16T04:31:06;2.83;;;1.42;;
11935;SDS011;6027;48.576;9.180;2022-10-16T04:33:32;2.63;;;1.70;;
11935;SDS011;6027;48.576;9.180;2022-10-16T04:35:58;1.75;;;1.65;;
11935;SDS011;6027;48.576;9.180;2022-10-16T04:38:25;3.88;;;1.40;;
11935;SDS011;6027;48.576;9.180;2022-10-16T04:40:51;1.70;;;1.60;;
11935;SDS011;6027;48.576;9.180;2022-10-16T04:43:16;4.55;;;1.65;;
11935;SDS011;6027;48.576;9.180;2022-10-16T04:45:42;2.95;;;1.80;;
11935;SDS011;6027;48.576;9.180;2022-10-16T04:48:08;2.63;;;2.15;;
11935;SDS011;6027;48.576;9.180;2022-10-16T04:50:33;1.80;;;1.70;;
11935;SDS011;6027;48.576;9.180;2022-10-16T04:52:58;4.03;;;1.98;;
11935;SDS011;6027;48.576;9.180;2022-10-16T04:55:24;3.65;;;2.30;;
11935;SDS011;6027;48.576;9.180;2022-10-16T04:57:50;2.40;;;1.90;;
11935;SDS011;6027;48.576;9.180;2022-10-16T05:00:15;1.98;;;1.70;;
11935;SDS011;6027;48.576;9.180;2022-10-16T05:02:41;3.60;;;1.70;;
11935;SDS011;6027;48.576;9.180;2022-10-16T05:05:06;1.42;;;1.33;;
11935;SDS011;6027;48.576;9.180;2022-10-16T05:07:32;1.70;;;1.60;;
11935;SDS011;6027;48.576;9.180;2022-10-16T05:09:57;3.83;;;1.27;;
11935;SDS011;6027;48.576;9.180;2022-10-16T05:12:23;2.78;;;1.33;;
11935;SDS011;6027;48.576;9.180;2022-10-16T05:14:48;1.58;;;1.30;;
11935;SDS011;6027;48.576;9.180;2022-10-16T05:17:14;2.10;;;1.10;;
11935;SDS011;6027;48.576;9.180;2022-10-16T05:19:39;3.22;;;1.05;;
11935;SDS011;6027;48.576;9.180;2022-10-16T05:22:04;2.40;;;1.20;;
11935;SDS011;6027;48.576;9.180;2022-10-16T05:24:30;1.60;;;1.13;;
11935;SDS011;6027;48.576;9.180;2022-10-16T05:26:55;3.75;;;1.23;;
11935;SDS011;6027;48.576;9.180;2022-10-16T05:29:21;4.57;;;1.27;;
11935;SDS011;6027;48.576;9.180;2022-10-16T05:31:49;1.50;;;1.10;;
11935;SDS011;6027;48.576;9.180;2022-10-16T05:34:15;1.40;;;1.20;;
11935;SDS011;6027;48.576;9.180;2022-10-16T05:36:41;2.05;;;1.30;;
11935;SDS011;6027;48.576;9.180;2022-10-16T05:39:06;6.80;;;1.30;;
11935;SDS011;6027;48.576;9.180;2022-10-16T05:41:32;1.95;;;1.30;;
11935;SDS011;6027;48.576;9.180;2022-10-16T05:43:57;4.18;;;1.25;;
11935;SDS011;6027;48.576;9.180;2022-10-16T05:46:22;3.53;;;1.55;;
11935;SDS011;6027;48.576;9.180;2022-10-16T05:48:48;3.30;;;1.40;;
11935;SDS011;6027;48.576;9.180;2022-10-16T05:51:16;1.75;;;1.08;;
11935;SDS011;6027;48.576;9.180;2022-10-16T05:53:41;1.65;;;1.40;;
11935;SDS011;6027;48.576;9.180;2022-10-16T05:56:08;2.67;;;1.08;;
11935;SDS011;6027;48.576;9.180;2022-10-16T05:58:36;1.20;;;1.10;;
11935;SDS011;6027;48.576;9.180;2022-10-16T06:01:03;1.73;;;1.30;;
11935;SDS011;6027;48.576;9.180;2022-10-16T06:03:32;1.33;;;1.23;;
11935;SDS011;6027;48.576;9.180;2022-10-16T06:05:57;1.33;;;1.23;;
11935;SDS011;6027;48.576;9.180;2022-10-16T06:08:23;2.78;;;1.27;;
11935;SDS011;6027;48.576;9.180;2022-10-16T06:10:48;2.70;;;1.30;;
11935;SDS011;6027;48.576;9.180;2022-10-16T06:13:25;2.92;;;1.55;;
11935;SDS011;6027;48.576;9.180;2022-10-16T06:15:50;4.22;;;1.73;;
11935;SDS011;6027;48.576;9.180;2022-10-16T06:18:16;4.57;;;2.42;;
11935;SDS011;6027;48.576;9.180;2022-10-16T06:20:41;2.75;;;2.50;;
11935;SDS011;6027;48.576;9.180;2022-10-16T06:23:06;3.15;;;2.20;;
11935;SDS011;6027;48.576;9.180;2022-10-16T06:25:32;2.83;;;2.08;;
11935;SDS011;6027;48.576;9.180;2022-10-16T06:27:57;3.35;;;2.22;;
11935;SDS011;6027;48.576;9.180;2022-10-16T06:30:23;2.58;;;2.10;;
11935;SDS011;6027;48.576;9.180;2022-10-16T06:32:48;3.58;;;2.50;;
11935;SDS011;6027;48.576;9.180;2022-10-16T06:35:14;3.45;;;2.33;;
11935;SDS011;6027;48.576;9.180;2022-10-16T06:37:39;9.40;;;2.55;;
11935;SDS011;6027;48.576;9.180;2022-10-16T06:40:04;2.63;;;2.42;;
11935;SDS011;6027;48.576;9.180;2022-10-16T06:42:30;4.30;;;2.75;;
11935;SDS011;6027;48.576;9.180;2022-10-16T06:44:56;4.50;;;2.65;;
11935;SDS011;6027;48.576;9.180;2022-10-16T06:47:21;4.70;;;3.38;;
11935;SDS011;6027;48.576;9.180;2022-10-16T06:49:47;8.07;;;4.30;;
11935;SDS011;6027;48.576;9.180;2022-10-16T06:52:12;6.78;;;4.13;;
11935;SDS011;6027;48.576;9.180;2022-10-16T06:54:37;6.60;;;4.03;;
11935;SDS011;6027;48.576;9.180;2022-10-16T06:57:03;3.25;;;2.85;;
11935;SDS011;6027;48.576;9.180;2022-10-16T06:59:28;3.92;;;2.70;;
11935;SDS011;6027;48.576;9.180;2022-10-16T07:01:53;2.97;;;2.65;;
11935;SDS011;6027;48.576;9.180;2022-10-16T07:04:19;4.43;;;2.65;;
11935;SDS011;6027;48.576;9.180;2022-10-16T07:06:44;4.05;;;2.00;;
11935;SDS011;6027;48.576;9.180;2022-10-16T07:09:10;6.65;;;2.05;;
11935;SDS011;6027;48.576;9.180;2022-10-16T07:11:37;1.83;;;1.60;;
11935;SDS011;6027;48.576;9.180;2022-10-16T07:14:04;2.83;;;1.80;;
11935;SDS011;6027;48.576;9.180;2022-10-16T07:16:31;3.55;;;2.30;;
11935;SDS011;6027;48.576;9.180;2022-10-16T07:18:58;2.63;;;1.80;;
11935;SDS011;6027;48.576;9.180;2022-10-16T07:21:26;4.32;;;1.90;;
11935;SDS011;6027;48.576;9.180;2022-10-16T07:23:55;5.10;;;1.92;;
11935;SDS011;6027;48.576;9.180;2022-10-16T07:26:25;3.65;;;1.50;;
11935;SDS011;6027;48.576;9.180;2022-10-16T07:28:51;2.70;;;1.70;;
11935;SDS011;6027;48.576;9.180;2022-10-16T07:31:18;3.55;;;1.60;;
11935;SDS011;6027;48.576;9.180;2022-10-16T07:33:47;4.10;;;1.70;;
11935;SDS011;6027;48.576;9.180;2022-10-16T07:36:13;1.80;;;1.40;;
11935;SDS011;6027;48.576;9.180;2022-10-16T07:38:40;5.47;;;1.90;;
11935;SDS011;6027;48.576;9.180;2022-10-16T07:41:07;1.50;;;1.23;;
11935;SDS011;6027;48.576;9.180;2022-10-16T07:43:36;5.13;;;1.80;;
11935;SDS011;6027;48.576;9.180;2022-10-16T07:46:01;4.30;;;1.88;;
11935;SDS011;6027;48.576;9.180;2022-10-16T07:48:28;6.40;;;2.05;;
11935;SDS011;6027;48.576;9.180;2022-10-16T07:51:02;2.75;;;1.90;;
11935;SDS011;6027;48.576;9.180;2022-10-16T07:53:30;6.57;;;2.00;;
11935;SDS011;6027;48.576;9.180;2022-10-16T07:55:59;2.50;;;2.25;;
11935;SDS011;6027;48.576;9.180;2022-10-16T07:58:27;4.13;;;2.00;;
11935;SDS011;6027;48.576;9.180;2022-10-16T08:00:53;4.88;;;2.05;;
11935;SDS011;6027;48.576;9.180;2022-10-16T08:03:19;5.13;;;1.88;;
11935;SDS011;6027;48.576;9.180;2022-10-16T08:05:44;1.92;;;1.70;;
11935;SDS011;6027;48.576;9.180;2022-10-16T08:08:13;6.40;;;1.90;;
11935;SDS011;6027;48.576;9.180;2022-10-16T08:10:40;2.38;;;1.75;;
11935;SDS011;6027;48.576;9.180;2022-10-16T08:13:05;4.22;;;1.85;;
11935;SDS011;6027;48.576;9.180;2022-10-16T08:15:31;3.22;;;1.85;;
11935;SDS011;6027;48.576;9.180;2022-10-16T08:18:03;3.05;;;1.70;;
11935;SDS011;6027;48.576;9.180;2022-10-16T08:20:31;1.92;;;1.73;;
11935;SDS011;6027;48.576;9.180;2022-10-16T08:22:58;4.13;;;1.65;;
11935;SDS011;6027;48.576;9.180;2022-10-16T08:25:25;4.57;;;1.52;;
11935;SDS011;6027;48.576;9.180;2022-10-16T08:27:50;3.70;;;1.50;;
11935;SDS011;6027;48.576;9.180;2022-10-16T08:30:16;4.90;;;1.60;;
11935;SDS011;6027;48.576;9.180;2022-10-16T08:32:43;6.72;;;2.40;;
11935;SDS011;6027;48.576;9.180;2022-10-16T08:35:09;5.05;;;2.95;;
11935;SDS011;6027;48.576;9.180;2022-10-16T08:37:36;9.32;;;8.15;;
11935;SDS011;6027;48.576;9.180;2022-10-16T08:40:02;4.78;;;3.20;;
11935;SDS011;6027;48.576;9.180;2022-10-16T08:47:49;2.00;;;1.60;;
11935;SDS011;6027;48.576;9.180;2022-10-16T08:50:30;4.03;;;1.60;;
11935;SDS011;6027;48.576;9.180;2022-10-16T08:52:58;3.38;;;1.40;;
11935;SDS011;6027;48.576;9.180;2022-10-16T08:58:14;1.77;;;1.20;;
11935;SDS011;6027;48.576;9.180;2022-10-16T09:00:42;2.33;;;1.25;;
11935;SDS011;6027;48.576;9.180;2022-10-16T09:03:26;1.77;;;1.52;;
11935;SDS011;6027;48.576;9.180;2022-10-16T09:06:07;3.53;;;3.22;;
11935;SDS011;6027;48.576;9.180;2022-10-16T09:11:20;6.35;;;2.08;;
11935;SDS011;6027;48.576;9.180;2022-10-16T09:14:16;4.30;;;1.80;;
11935;SDS011;6027;48.576;9.180;2022-10-16T09:17:01;2.13;;;1.80;;
11935;SDS011;6027;48.576;9.180;2022-10-16T09:23:15;3.70;;;1.42;;
11935;SDS011;6027;48.576;9.180;2022-10-16T09:25:47;2.83;;;1.20;;
11935;SDS011;6027;48.576;9.180;2022-10-16T09:28:15;4.47;;;1.73;;
11935;SDS011;6027;48.576;9.180;2022-10-16T09:30:42;2.13;;;1.27;;
11935;SDS011;6027;48.576;9.180;2022-10-16T09:33:09;4.15;;;1.20;;
11935;SDS011;6027;48.576;9.180;2022-10-16T09:38:06;1.58;;;1.30;;
11935;SDS011;6027;48.576;9.180;2022-10-16T09:40:35;1.40;;;1.20;;
11935;SDS011;6027;48.576;9.180;2022-10-16T09:45:42;3.63;;;1.40;;
11935;SDS011;6027;48.576;9.180;2022-10-16T09:48:12;4.30;;;1.40;;
11935;SDS011;6027;48.576;9.180;2022-10-16T09:50:38;4.40;;;1.40;;
11935;SDS011;6027;48.576;9.180;2022-10-16T09:53:05;2.38;;;1.50;;
11935;SDS011;6027;48.576;9.180;2022-10-16T09:55:36;4.85;;;1.33;;
11935;SDS011;6027;48.576;9.180;2022-10-16T09:58:01;2.50;;;1.40;;
11935;SDS011;6027;48.576;9.180;2022-10-16T10:00:27;2.83;;;1.50;;
11935;SDS011;6027;48.576;9.180;2022-10-16T10:02:53;2.80;;;1.30;;
11935;SDS011;6027;48.576;9.180;2022-10-16T10:05:24;1.85;;;1.50;;
11935;SDS011;6027;48.576;9.180;2022-10-16T10:10:26;6.60;;;1.88;;
11935;SDS011;6027;48.576;9.180;2022-10-16T10:12:53;5.05;;;2.05;;
11935;SDS011;6027;48.576;9.180;2022-10-16T10:15:20;3.33;;;1.30;;
11935;SDS011;6027;48.576;9.180;2022-10-16T10:17:55;1.15;;;1.02;;
11935;SDS011;6027;48.576;9.180;2022-10-16T10:20:25;1.58;;;1.20;;
11935;SDS011;6027;48.576;9.180;2022-10-16T10:22:51;1.52;;;1.20;;
11935;SDS011;6027;48.576;9.180;2022-10-16T10:33:52;4.45;;;1.65;;
11935;SDS011;6027;48.576;9.180;2022-10-16T10:36:37;3.78;;;1.52;;
11935;SDS011;6027;48.576;9.180;2022-10-16T10:44:01;2.35;;;1.20;;
11935;SDS011;6027;48.576;9.180;2022-10-16T10:54:38;2.78;;;1.20;;
11935;SDS011;6027;48.576;9.180;2022-10-16T11:00:12;1.75;;;1.27;;
11935;SDS011;6027;48.576;9.180;2022-10-16T11:08:17;2.38;;;1.23;;
11935;SDS011;6027;48.576;9.180;2022-10-16T11:13:18;3.22;;;1.40;;
11935;SDS011;6027;48.576;9.180;2022-10-16T11:15:45;1.63;;;1.30;;
11935;SDS011;6027;48.576;9.180;2022-10-16T11:26:28;1.13;;;0.98;;
11935;SDS011;6027;48.576;9.180;2022-10-16T11:28:57;1.42;;;1.05;;
11935;SDS011;6027;48.576;9.180;2022-10-16T11:31:29;1.25;;;1.13;;
11935;SDS011;6027;48.576;9.180;2022-10-16T11:34:03;2.33;;;1.10;;
11935;SDS011;6027;48.576;9.180;2022-10-16T11:37:01;2.00;;;1.25;;
11935;SDS011;6027;48.576;9.180;2022-10-16T11:39:34;1.63;;;1.10;;
11935;SDS011;6027;48.576;9.180;2022-10-16T11:42:04;2.25;;;1.30;;
11935;SDS011;6027;48.576;9.180;2022-10-16T11:44:51;2.03;;;1.30;;
11935;SDS011;6027;48.576;9.180;2022-10-16T11:56:18;3.15;;;1.25;;
11935;SDS011;6027;48.576;9.180;2022-10-16T12:01:22;3.05;;;1.52;;
11935;SDS011;6027;48.576;9.180;2022-10-16T12:06:41;1.38;;;1.10;;
11935;SDS011;6027;48.576;9.180;2022-10-16T12:09:14;1.40;;;1.20;;
11935;SDS011;6027;48.576;9.180;2022-10-16T12:11:45;1.48;;;1.10;;
11935;SDS011;6027;48.576;9.180;2022-10-16T12:16:37;2.53;;;1.30;;
11935;SDS011;6027;48.576;9.180;2022-10-16T12:19:27;1.33;;;1.23;;
11935;SDS011;6027;48.576;9.180;2022-10-16T12:21:55;2.00;;;1.20;;
11935;SDS011;6027;48.576;9.180;2022-10-16T12:30:05;2.88;;;1.20;;
11935;SDS011;6027;48.576;9.180;2022-10-16T12:32:37;6.05;;;1.30;;
11935;SDS011;6027;48.576;9.180;2022-10-16T12:35:05;1.70;;;1.23;;
11935;SDS011;6027;48.576;9.180;2022-10-16T12:37:43;2.40;;;1.30;;
11935;SDS011;6027;48.576;9.180;2022-10-16T12:40:28;1.30;;;1.10;;
11935;SDS011;6027;48.576;9.180;2022-10-16T12:42:56;3.55;;;1.33;;
11935;SDS011;6027;48.576;9.180;2022-10-16T12:45:26;2.03;;;1.30;;
11935;SDS011;6027;48.576;9.180;2022-10-16T12:48:19;1.80;;;1.05;;
11935;SDS011;6027;48.576;9.180;2022-10-16T12:54:00;1.98;;;1.05;;
11935;SDS011;6027;48.576;9.180;2022-10-16T12:59:23;3.72;;;2.03;;
11935;SDS011;6027;48.576;9.180;2022-10-16T13:02:01;2.17;;;1.17;;
11935;SDS011;6027;48.576;9.180;2022-10-16T13:04:54;3.70;;;1.60;;
11935;SDS011;6027;48.576;9.180;2022-10-16T13:10:35;1.27;;;1.17;;
11935;SDS011;6027;48.576;9.180;2022-10-16T13:18:54;1.35;;;1.23;;
11935;SDS011;6027;48.576;9.180;2022-10-16T13:21:44;1.35;;;1.20;;
11935;SDS011;6027;48.576;9.180;2022-10-16T13:24:15;1.83;;;1.20;;
11935;SDS011;6027;48.576;9.180;2022-10-16T13:29:10;2.60;;;1.40;;
11935;SDS011;6027;48.576;9.180;2022-10-16T13:31:37;1.65;;;1.20;;
11935;SDS011;6027;48.576;9.180;2022-10-16T13:34:03;3.22;;;1.20;;
11935;SDS011;6027;48.576;9.180;2022-10-16T13:36:35;2.75;;;1.35;;
11935;SDS011;6027;48.576;9.180;2022-10-16T13:39:28;1.85;;;1.40;;
11935;SDS011;6027;48.576;9.180;2022-10-16T13:44:30;1.83;;;1.30;;
11935;SDS011;6027;48.576;9.180;2022-10-16T13:47:25;2.90;;;1.40;;
11935;SDS011;6027;48.576;9.180;2022-10-16T13:50:06;3.65;;;1.50;;
11935;SDS011;6027;48.576;9.180;2022-10-16T13:52:46;3.05;;;1.30;;
11935;SDS011;6027;48.576;9.180;2022-10-16T13:55:12;4.95;;;1.40;;
11935;SDS011;6027;48.576;9.180;2022-10-16T13:57:39;1.40;;;1.30;;
11935;SDS011;6027;48.576;9.180;2022-10-16T14:00:18;2.47;;;1.88;;
11935;SDS011;6027;48.576;9.180;2022-10-16T14:03:11;2.10;;;1.60;;
11935;SDS011;6027;48.576;9.180;2022-10-16T14:06:01;1.70;;;1.27;;
11935;SDS011;6027;48.576;9.180;2022-10-16T14:08:27;2.03;;;1.23;;
11935;SDS011;6027;48.576;9.180;2022-10-16T14:10:55;3.03;;;1.38;;
11935;SDS011;6027;48.576;9.180;2022-10-16T14:13:28;3.65;;;1.33;;
11935;SDS011;6027;48.576;9.180;2022-10-16T14:16:10;1.25;;;1.15;;
11935;SDS011;6027;48.576;9.180;2022-10-16T14:18:41;1.63;;;1.15;;
11935;SDS011;6027;48.576;9.180;2022-10-16T14:21:06;3.88;;;1.60;;
11935;SDS011;6027;48.576;9.180;2022-10-16T14:23:37;2.83;;;1.50;;
11935;SDS011;6027;48.576;9.180;2022-10-16T14:28:34;1.83;;;1.10;;
11935;SDS011;6027;48.576;9.180;2022-10-16T14:31:01;1.20;;;1.10;;
11935;SDS011;6027;48.576;9.180;2022-10-16T14:33:46;1.52;;;1.30;;
11935;SDS011;6027;48.576;9.180;2022-10-16T14:36:15;2.10;;;1.52;;
11935;SDS011;6027;48.576;9.180;2022-10-16T14:41:21;1.63;;;1.30;;
11935;SDS011;6027;48.576;9.180;2022-10-16T14:43:50;2.95;;;1.50;;
11935;SDS011;6027;48.576;9.180;2022-10-16T14:46:19;3.65;;;1.70;;
11935;SDS011;6027;48.576;9.180;2022-10-16T14:48:51;1.50;;;1.40;;
11935;SDS011;6027;48.576;9.180;2022-10-16T14:51:22;3.17;;;1.48;;
11935;SDS011;6027;48.576;9.180;2022-10-16T14:53:48;1.40;;;1.30;;
11935;SDS011;6027;48.576;9.180;2022-10-16T14:58:50;5.55;;;1.50;;
11935;SDS011;6027;48.576;9.180;2022-10-16T15:01:17;2.28;;;1.45;;
11935;SDS011;6027;48.576;9.180;2022-10-16T15:03:43;3.15;;;1.63;;
11935;SDS011;6027;48.576;9.180;2022-10-16T15:06:13;2.28;;;1.50;;
11935;SDS011;6027;48.576;9.180;2022-10-16T15:08:39;2.60;;;1.55;;
11935;SDS011;6027;48.576;9.180;2022-10-16T15:11:07;3.22;;;1.52;;
11935;SDS011;6027;48.576;9.180;2022-10-16T15:13:38;1.60;;;1.50;;
11935;SDS011;6027;48.576;9.180;2022-10-16T15:16:04;2.33;;;1.40;;
11935;SDS011;6027;48.576;9.180;2022-10-16T15:18:30;2.83;;;1.63;;
11935;SDS011;6027;48.576;9.180;2022-10-16T15:20:55;2.92;;;1.60;;
11935;SDS011;6027;48.576;9.180;2022-10-16T15:23:21;1.33;;;1.20;;
11935;SDS011;6027;48.576;9.180;2022-10-16T15:25:48;3.30;;;1.42;;
11935;SDS011;6027;48.576;9.180;2022-10-16T15:28:17;1.52;;;1.35;;
11935;SDS011;6027;48.576;9.180;2022-10-16T15:30:43;1.40;;;1.30;;
11935;SDS011;6027;48.576;9.180;2022-10-16T15:33:12;1.50;;;1.38;;
11935;SDS011;6027;48.576;9.180;2022-10-16T15:35:58;3.20;;;1.40;;
11935;SDS011;6027;48.576;9.180;2022-10-16T15:38:24;2.05;;;1.30;;
11935;SDS011;6027;48.576;9.180;2022-10-16T15:40:51;2.67;;;1.50;;
11935;SDS011;6027;48.576;9.180;2022-10-16T15:43:17;1.67;;;1.58;;
11935;SDS011;6027;48.576;9.180;2022-10-16T15:45:43;3.78;;;1.45;;
11935;SDS011;6027;48.576;9.180;2022-10-16T15:48:12;1.55;;;1.45;;
11935;SDS011;6027;48.576;9.180;2022-10-16T15:50:38;2.55;;;1.60;;
11935;SDS011;6027;48.576;9.180;2022-10-16T15:53:05;3.67;;;1.40;;
11935;SDS011;6027;48.576;9.180;2022-10-16T15:55:30;5.05;;;1.50;;
11935;SDS011;6027;48.576;9.180;2022-10-16T15:57:56;2.92;;;1.70;;
11935;SDS011;6027;48.576;9.180;2022-10-16T16:00:21;2.38;;;1.58;;
11935;SDS011;6027;48.576;9.180;2022-10-16T16:02:52;1.60;;;1.50;;
11935;SDS011;6027;48.576;9.180;2022-10-16T16:05:18;2.17;;;1.80;;
11935;SDS011;6027;48.576;9.180;2022-10-16T16:07:45;2.42;;;1.80;;
11935;SDS011;6027;48.576;9.180;2022-10-16T16:10:10;2.35;;;1.50;;
11935;SDS011;6027;48.576;9.180;2022-10-16T16:12:36;2.33;;;1.70;;
11935;SDS011;6027;48.576;9.180;2022-10-16T16:15:06;1.60;;;1.50;;
11935;SDS011;6027;48.576;9.180;2022-10-16T16:17:33;4.15;;;1.50;;
11935;SDS011;6027;48.576;9.180;2022-10-16T16:19:59;2.97;;;1.48;;
11935;SDS011;6027;48.576;9.180;2022-10-16T16:22:25;11.60;;;2.08;;
11935;SDS011;6027;48.576;9.180;2022-10-16T16:24:51;1.92;;;1.60;;
11935;SDS011;6027;48.576;9.180;2022-10-16T16:27:17;3.28;;;1.73;;
11935;SDS011;6027;48.576;9.180;2022-10-16T16:29:42;3.80;;;1.83;;
11935;SDS011;6027;48.576;9.180;2022-10-16T16:32:08;4.85;;;2.00;;
11935;SDS011;6027;48.576;9.180;2022-10-16T16:34:33;5.13;;;1.80;;
11935;SDS011;6027;48.576;9.180;2022-10-16T16:36:59;1.92;;;1.48;;
11935;SDS011;6027;48.576;9.180;2022-10-16T16:39:25;1.60;;;1.50;;
11935;SDS011;6027;48.576;9.180;2022-10-16T16:41:50;3.20;;;1.65;;
11935;SDS011;6027;48.576;9.180;2022-10-16T16:44:16;5.95;;;1.88;;
11935;SDS011;6027;48.576;9.180;2022-10-16T16:46:42;2.65;;;1.77;;
11935;SDS011;6027;48.576;9.180;2022-10-16T16:49:12;3.70;;;1.85;;
11935;SDS011;6027;48.576;9.180;2022-10-16T16:51:39;5.45;;;1.80;;
11935;SDS011;6027;48.576;9.180;2022-10-16T16:54:05;3.90;;;1.88;;
11935;SDS011;6027;48.576;9.180;2022-10-16T16:56:32;2.25;;;1.70;;
11935;SDS011;6027;48.576;9.180;2022-10-16T16:58:57;2.33;;;1.77;;
11935;SDS011;6027;48.576;9.180;2022-10-16T17:01:24;3.17;;;2.03;;
11935;SDS011;6027;48.576;9.180;2022-10-16T17:03:52;3.20;;;1.88;;
11935;SDS011;6027;48.576;9.180;2022-10-16T17:06:20;2.42;;;1.60;;
11935;SDS011;6027;48.576;9.180;2022-10-16T17:08:47;4.55;;;2.03;;
11935;SDS011;6027;48.576;9.180;2022-10-16T17:11:14;3.22;;;2.53;;
11935;SDS011;6027;48.576;9.180;2022-10-16T17:13:41;4.50;;;2.65;;
11935;SDS011;6027;48.576;9.180;2022-10-16T17:16:07;3.78;;;2.45;;
11935;SDS011;6027;48.576;9.180;2022-10-16T17:18:33;8.32;;;2.65;;
11935;SDS011;6027;48.576;9.180;2022-10-16T17:21:04;6.90;;;2.40;;
11935;SDS011;6027;48.576;9.180;2022-10-16T17:23:35;3.88;;;2.25;;